createdAt,value
2019-02-19T00:01:08.754Z,63.20
2019-02-19T00:03:37.384Z,69.53
2019-02-19T00:06:06.033Z,60.73
2019-02-19T00:08:34.584Z,71.97
2019-02-19T00:11:03.363Z,73.17
2019-02-19T00:13:31.985Z,68.50
2019-02-19T00:16:00.615Z,70.00
2019-02-19T00:18:29.237Z,75.80
2019-02-19T00:20:57.907Z,69.57
2019-02-19T00:23:26.460Z,63.90
2019-02-19T00:25:54.957Z,71.10
2019-02-19T00:28:23.613Z,57.87
2019-02-19T00:30:52.282Z,60.67
2019-02-19T00:33:20.774Z,59.37
2019-02-19T00:35:49.372Z,59.87
2019-02-19T00:38:17.996Z,52.87
2019-02-19T00:40:46.619Z,55.87
2019-02-19T00:43:15.157Z,51.87
2019-02-19T00:45:44.800Z,50.60
2019-02-19T00:48:13.417Z,59.17
2019-02-19T00:50:42.074Z,58.93
2019-02-19T00:53:10.558Z,49.10
2019-02-19T00:55:39.177Z,58.33
2019-02-19T00:58:08.069Z,59.13
2019-02-19T01:00:36.623Z,70.83
2019-02-19T01:03:05.286Z,92.43
2019-02-19T01:05:34.065Z,94.73
2019-02-19T01:08:02.631Z,129.87
2019-02-19T01:10:31.188Z,123.17
2019-02-19T01:13:00.169Z,144.93
2019-02-19T01:15:28.873Z,141.53
2019-02-19T01:17:57.379Z,142.23
2019-02-19T01:20:25.942Z,152.17
2019-02-19T01:22:54.603Z,132.27
2019-02-19T01:25:23.237Z,130.07
2019-02-19T01:27:51.793Z,133.97
2019-02-19T01:30:20.363Z,135.53
2019-02-19T01:32:48.987Z,98.17
2019-02-19T01:35:17.739Z,90.10
2019-02-19T01:37:47.296Z,97.30
2019-02-19T01:40:15.863Z,85.93
2019-02-19T01:42:44.486Z,63.50
2019-02-19T01:45:13.124Z,67.60
2019-02-19T01:47:41.725Z,64.83
2019-02-19T01:50:10.955Z,64.07
2019-02-19T01:52:39.573Z,56.90
2019-02-19T01:55:08.917Z,58.90
2019-02-19T01:57:37.462Z,57.80
2019-02-19T02:00:09.093Z,60.40
2019-02-19T02:02:37.721Z,63.17
2019-02-19T02:05:06.413Z,64.17
2019-02-19T02:07:34.993Z,65.13
2019-02-19T02:10:04.411Z,60.93
2019-02-19T02:12:33.047Z,56.17
2019-02-19T02:15:01.620Z,60.53
2019-02-19T02:17:30.278Z,64.00
2019-02-19T02:19:58.899Z,61.93
2019-02-19T02:22:27.396Z,66.53
2019-02-19T02:24:55.880Z,71.53
2019-02-19T02:27:24.504Z,87.73
2019-02-19T02:29:53.165Z,87.03
2019-02-19T02:32:21.647Z,74.17
2019-02-19T02:34:50.148Z,78.00
2019-02-19T02:37:19.045Z,90.47
2019-02-19T02:39:47.680Z,90.53
2019-02-19T02:42:32.275Z,85.67
2019-02-19T02:45:00.921Z,92.40
2019-02-19T02:47:29.556Z,78.03
2019-02-19T02:49:58.180Z,79.03
2019-02-19T02:52:26.700Z,71.87
2019-02-19T02:54:55.319Z,89.77
2019-02-19T02:57:23.880Z,111.10
2019-02-19T02:59:52.427Z,111.77
2019-02-19T03:02:21.037Z,97.00
2019-02-19T03:04:49.674Z,96.03
2019-02-19T03:07:28.476Z,99.90
2019-02-19T03:09:56.971Z,95.80
2019-02-19T03:12:25.601Z,90.40
2019-02-19T03:14:54.429Z,81.83
2019-02-19T03:17:22.997Z,70.00
2019-02-19T03:19:51.472Z,73.87
2019-02-19T03:22:20.168Z,76.83
2019-02-19T03:24:48.800Z,72.93
2019-02-19T03:27:17.292Z,73.50
2019-02-19T03:29:45.810Z,69.63
2019-02-19T03:32:14.436Z,73.70
2019-02-19T03:34:42.988Z,63.73
2019-02-19T03:37:11.864Z,56.17
2019-02-19T03:39:40.485Z,58.93
2019-02-19T03:42:09.111Z,60.30
2019-02-19T03:44:37.655Z,50.57
2019-02-19T03:47:06.276Z,40.47
2019-02-19T03:49:34.909Z,39.27
2019-02-19T03:52:03.518Z,32.47
2019-02-19T03:54:32.145Z,31.10
2019-02-19T03:57:01.082Z,33.07
2019-02-19T03:59:29.761Z,43.63
2019-02-19T04:01:58.486Z,38.03
2019-02-19T04:04:27.111Z,56.23
2019-02-19T04:06:55.794Z,41.03
2019-02-19T04:09:24.414Z,57.30
2019-02-19T04:11:52.910Z,76.13
2019-02-19T04:14:21.582Z,96.50
2019-02-19T04:16:50.081Z,101.97
2019-02-19T04:19:18.677Z,97.10
2019-02-19T04:21:47.346Z,103.37
2019-02-19T04:24:16.000Z,77.90
2019-02-19T04:26:44.480Z,64.83
2019-02-19T04:29:12.958Z,64.47
2019-02-19T04:31:41.625Z,51.93
2019-02-19T04:34:10.252Z,51.97
2019-02-19T04:36:38.809Z,51.40
2019-02-19T04:39:07.583Z,58.73
2019-02-19T04:41:36.217Z,69.87
2019-02-19T04:44:04.854Z,57.60
2019-02-19T04:46:33.617Z,64.77
2019-02-19T04:49:02.177Z,60.73
2019-02-19T04:51:30.801Z,61.37
2019-02-19T04:53:59.350Z,68.00
2019-02-19T04:56:27.971Z,60.97
2019-02-19T04:58:56.600Z,66.33
2019-02-19T05:01:25.202Z,81.67
2019-02-19T05:04:01.095Z,85.37
2019-02-19T05:06:29.920Z,85.17
2019-02-19T05:08:58.553Z,84.33
2019-02-19T05:15:10.511Z,84.57
2019-02-19T05:17:39.212Z,84.60
2019-02-19T05:20:09.337Z,85.43
2019-02-19T05:22:37.973Z,73.90
2019-02-19T05:25:08.033Z,85.20
2019-02-19T05:27:36.660Z,88.73
2019-02-19T05:30:10.719Z,73.87
2019-02-19T05:32:39.234Z,86.73
2019-02-19T05:35:08.670Z,91.53
2019-02-19T05:37:37.161Z,112.83
2019-02-19T05:40:08.046Z,133.13
2019-02-19T05:42:36.669Z,130.67
2019-02-19T05:45:08.272Z,118.77
2019-02-19T05:50:41.458Z,108.20
2019-02-19T05:53:10.141Z,108.97
2019-02-19T05:55:38.778Z,107.72
2019-02-19T05:58:07.282Z,108.07
2019-02-19T06:00:35.879Z,106.10
2019-02-19T06:03:04.520Z,112.30
2019-02-19T06:05:33.158Z,115.65
2019-02-19T06:08:01.746Z,113.65
2019-02-19T06:10:30.382Z,117.55
2019-02-19T06:12:59.014Z,105.52
2019-02-19T06:15:27.542Z,107.80
2019-02-19T06:17:56.170Z,115.60
2019-02-19T06:20:24.802Z,108.17
2019-02-19T06:22:53.345Z,122.00
2019-02-19T06:25:21.826Z,129.75
2019-02-19T06:27:50.554Z,123.87
2019-02-19T06:30:19.213Z,116.00
2019-02-19T06:32:47.702Z,122.15
2019-02-19T06:35:16.342Z,132.95
2019-02-19T06:37:45.029Z,130.20
2019-02-19T06:40:25.633Z,150.80
2019-02-19T06:42:54.299Z,142.40
2019-02-19T06:45:22.926Z,145.25
2019-02-19T06:47:51.564Z,140.47
2019-02-19T06:50:20.248Z,126.67
2019-02-19T06:52:48.748Z,126.22
2019-02-19T06:55:17.318Z,135.05
2019-02-19T06:57:45.976Z,108.12
2019-02-19T07:00:14.929Z,131.82
2019-02-19T07:02:50.631Z,125.58
2019-02-19T07:05:20.784Z,91.32
2019-02-19T07:07:49.419Z,88.85
2019-02-19T07:10:18.052Z,88.62
2019-02-19T07:12:46.555Z,101.35
2019-02-19T07:15:15.172Z,113.90
2019-02-19T07:17:43.803Z,103.97
2019-02-19T07:20:12.454Z,114.37
2019-02-19T07:22:40.962Z,103.67
2019-02-19T07:25:12.724Z,95.35
2019-02-19T07:27:41.399Z,92.67
2019-02-19T07:30:11.630Z,91.97
2019-02-19T07:32:40.270Z,89.35
2019-02-19T07:35:10.104Z,97.33
2019-02-19T07:37:38.664Z,89.95
2019-02-19T07:40:09.010Z,90.85
2019-02-19T07:42:37.645Z,99.77
2019-02-19T07:45:09.225Z,93.85
2019-02-19T07:47:37.859Z,94.47
2019-02-19T07:50:09.085Z,98.78
2019-02-19T07:52:38.022Z,85.95
2019-02-19T07:55:10.512Z,102.05
2019-02-19T07:57:39.109Z,104.63
2019-02-19T08:00:10.933Z,80.00
2019-02-19T08:02:39.553Z,81.92
2019-02-19T08:05:08.429Z,80.20
2019-02-19T08:07:36.911Z,90.42
2019-02-19T08:10:08.217Z,78.85
2019-02-19T08:12:37.025Z,84.03
2019-02-19T08:15:12.803Z,92.45
2019-02-19T08:17:41.438Z,78.70
2019-02-19T08:20:15.698Z,74.70
2019-02-19T08:22:40.665Z,71.90
2019-02-19T08:25:09.330Z,75.50
2019-02-19T08:27:37.959Z,78.55
2019-02-19T08:30:10.989Z,85.12
2019-02-19T08:32:39.192Z,82.95
2019-02-19T08:35:08.160Z,84.07
2019-02-19T08:37:36.790Z,98.37
2019-02-19T08:40:07.766Z,84.40
2019-02-19T08:42:36.267Z,84.62
2019-02-19T08:45:06.605Z,86.82
2019-02-19T08:47:42.248Z,88.30
2019-02-19T08:50:07.711Z,82.10
2019-02-19T08:52:36.238Z,82.25
2019-02-19T08:55:05.520Z,76.82
2019-02-19T08:57:34.021Z,76.75
2019-02-19T09:00:02.590Z,77.42
2019-02-19T09:02:31.267Z,82.85
2019-02-19T09:04:59.895Z,77.80
2019-02-19T09:07:28.387Z,86.53
2019-02-19T09:09:56.928Z,81.80
2019-02-19T09:12:25.560Z,76.60
2019-02-19T09:14:54.191Z,72.32
2019-02-19T09:17:22.708Z,80.60
2019-02-19T09:19:51.208Z,85.28
2019-02-19T09:22:19.837Z,80.67
2019-02-19T09:24:48.657Z,92.47
2019-02-19T09:27:17.213Z,66.53
2019-02-19T09:29:47.560Z,69.42
2019-02-19T09:32:16.067Z,79.03
2019-02-19T09:34:44.637Z,73.30
2019-02-19T09:37:13.273Z,78.28
2019-02-19T09:39:41.948Z,69.77
2019-02-19T09:42:10.469Z,70.90
2019-02-19T09:44:38.925Z,79.53
2019-02-19T09:47:07.630Z,65.42
2019-02-19T09:49:36.310Z,73.20
2019-02-19T09:52:04.965Z,64.10
2019-02-19T09:54:33.551Z,66.85
2019-02-19T09:57:02.194Z,70.78
2019-02-19T09:59:30.808Z,68.00
2019-02-19T10:01:59.687Z,61.83
2019-02-19T10:04:28.240Z,53.33
2019-02-19T10:06:56.882Z,58.35
2019-02-19T10:09:25.527Z,55.70
2019-02-19T10:11:54.022Z,53.78
2019-02-19T10:14:22.705Z,65.17
2019-02-19T10:16:51.181Z,58.33
2019-02-19T10:19:19.670Z,63.65
2019-02-19T10:21:48.346Z,58.55
2019-02-19T10:24:16.986Z,60.43
2019-02-19T10:26:45.529Z,57.62
2019-02-19T10:29:14.031Z,53.85
2019-02-19T10:31:42.666Z,47.50
2019-02-19T10:34:11.344Z,49.50
2019-02-19T10:36:39.837Z,54.73
2019-02-19T10:39:10.914Z,48.40
2019-02-19T10:41:39.573Z,49.20
2019-02-19T10:44:08.201Z,49.63
2019-02-19T10:46:36.876Z,64.70
2019-02-19T10:49:12.588Z,47.45
2019-02-19T10:51:41.462Z,49.75
2019-02-19T10:54:10.048Z,50.63
2019-02-19T10:56:38.670Z,50.60
2019-02-19T10:59:07.390Z,50.88
2019-02-19T11:01:36.060Z,44.60
2019-02-19T11:04:04.680Z,46.92
2019-02-19T11:06:33.563Z,48.55
2019-02-19T11:09:02.271Z,71.12
2019-02-19T11:11:30.836Z,43.73
2019-02-19T11:13:59.355Z,43.80
2019-02-19T11:16:27.985Z,36.28
2019-02-19T11:18:56.627Z,45.25
2019-02-19T11:21:25.145Z,39.15
2019-02-19T11:23:53.648Z,36.55
2019-02-19T11:26:22.284Z,37.28
2019-02-19T11:28:50.967Z,32.28
2019-02-19T11:31:19.532Z,36.25
2019-02-19T11:33:48.241Z,35.08
2019-02-19T11:36:16.844Z,43.58
2019-02-19T11:38:45.400Z,34.27
2019-02-19T11:41:14.025Z,30.43
2019-02-19T11:43:42.685Z,25.77
2019-02-19T11:46:11.255Z,31.15
2019-02-19T11:48:39.749Z,32.30
2019-02-19T11:51:08.466Z,40.25
2019-02-19T11:53:37.101Z,38.45
2019-02-19T11:56:05.735Z,23.22
2019-02-19T11:58:34.343Z,17.02
2019-02-19T12:01:03.041Z,18.00
2019-02-19T12:03:31.676Z,12.20
2019-02-19T12:06:00.282Z,10.43
2019-02-19T12:08:28.766Z,11.45
2019-02-19T12:10:57.387Z,13.28
2019-02-19T12:13:26.021Z,14.13
2019-02-19T12:15:54.675Z,9.78
2019-02-19T12:18:23.366Z,14.28
2019-02-19T12:20:51.997Z,10.95
2019-02-19T12:23:20.622Z,8.28
2019-02-19T12:25:49.272Z,8.05
2019-02-19T12:28:17.747Z,9.43
2019-02-19T12:30:46.459Z,8.85
2019-02-19T12:33:15.309Z,9.58
2019-02-19T12:35:43.800Z,9.35
2019-02-19T12:38:12.378Z,9.70
2019-02-19T12:40:41.020Z,12.68
2019-02-19T12:43:09.701Z,12.37
2019-02-19T12:45:38.311Z,19.20
2019-02-19T12:48:07.035Z,23.10
2019-02-19T12:50:35.615Z,14.75
2019-02-19T12:53:04.234Z,14.15
2019-02-19T12:55:32.902Z,15.25
2019-02-19T12:58:01.530Z,14.47
2019-02-19T13:00:30.016Z,13.40
2019-02-19T13:02:58.554Z,13.65
2019-02-19T13:05:27.193Z,14.60
2019-02-19T13:07:55.830Z,16.55
2019-02-19T13:10:24.349Z,17.62
2019-02-19T13:12:52.918Z,18.82
2019-02-19T13:15:22.447Z,21.87
2019-02-19T13:17:51.277Z,17.62
2019-02-19T13:20:19.856Z,15.45
2019-02-19T13:22:48.337Z,16.48
2019-02-19T13:25:17.176Z,17.20
2019-02-19T13:27:45.801Z,13.62
2019-02-19T13:30:16.878Z,13.95
2019-02-19T13:32:45.538Z,13.13
2019-02-19T13:35:14.368Z,10.50
2019-02-19T13:37:43.014Z,13.95
2019-02-19T13:40:16.553Z,12.63
2019-02-19T13:42:45.176Z,15.25
2019-02-19T13:45:15.202Z,13.08
2019-02-19T13:47:43.864Z,15.90
2019-02-19T13:50:18.117Z,9.88
2019-02-19T13:52:51.510Z,9.88
2019-02-19T13:55:21.701Z,11.33
2019-02-19T13:57:50.398Z,17.98
2019-02-19T14:00:20.644Z,8.53
2019-02-19T14:02:49.320Z,12.75
2019-02-19T14:05:17.878Z,9.70
2019-02-19T14:07:46.358Z,8.85
2019-02-19T14:10:15.046Z,19.82
2019-02-19T14:12:43.675Z,15.88
2019-02-19T14:15:20.101Z,7.65
2019-02-19T14:17:48.720Z,8.38
2019-02-19T14:20:21.575Z,14.87
2019-02-19T14:22:54.464Z,14.98
2019-02-19T14:25:33.545Z,10.78
2019-02-19T14:28:15.881Z,11.70
2019-02-19T14:30:58.291Z,15.08
2019-02-19T14:33:48.651Z,10.85
2019-02-19T14:36:12.410Z,9.33
2019-02-19T14:38:48.712Z,13.32
2019-02-19T14:41:18.915Z,7.22
2019-02-19T14:44:05.614Z,15.20
2019-02-19T14:46:48.090Z,10.35
2019-02-19T14:49:37.504Z,15.23
2019-02-19T14:52:09.371Z,10.25
2019-02-19T14:54:39.690Z,16.40
2019-02-19T14:57:18.380Z,12.20
2019-02-19T14:59:57.840Z,11.55
2019-02-19T15:02:37.393Z,8.50
2019-02-19T15:05:14.695Z,8.98
2019-02-19T15:08:01.521Z,11.93
2019-02-19T15:10:48.282Z,8.10
2019-02-19T15:13:21.577Z,13.35
2019-02-19T15:16:00.751Z,13.40
2019-02-19T15:18:46.219Z,8.75
2019-02-19T15:21:25.664Z,16.62
2019-02-19T15:23:59.021Z,15.60
2019-02-19T15:26:47.584Z,17.30
2019-02-19T15:29:26.708Z,7.95
2019-02-19T15:32:13.223Z,11.40
2019-02-19T15:34:43.490Z,17.57
2019-02-19T15:37:25.745Z,13.32
2019-02-19T15:40:12.189Z,15.38
2019-02-19T15:42:48.491Z,12.73
2019-02-19T15:45:21.389Z,11.97
2019-02-19T15:48:07.847Z,18.60
2019-02-19T15:50:56.454Z,21.00
2019-02-19T15:53:42.028Z,24.70
2019-02-19T15:56:17.596Z,23.70
2019-02-19T15:58:59.317Z,26.65
2019-02-19T16:01:44.494Z,34.60
2019-02-19T16:04:15.001Z,38.23
2019-02-19T16:06:45.133Z,25.62
2019-02-19T16:09:31.540Z,25.72
2019-02-19T16:12:07.728Z,28.65
2019-02-19T16:14:44.011Z,36.85
2019-02-19T16:17:23.113Z,44.93
2019-02-19T16:20:02.676Z,39.20
2019-02-19T16:22:32.887Z,27.87
2019-02-19T16:25:17.865Z,23.70
2019-02-19T16:27:57.167Z,27.07
2019-02-19T16:30:30.145Z,20.72
2019-02-19T16:33:09.214Z,22.77
2019-02-19T16:35:39.442Z,24.98
2019-02-19T16:38:09.781Z,29.63
2019-02-19T16:40:40.045Z,34.35
2019-02-19T16:43:16.204Z,24.92
2019-02-19T16:45:46.320Z,21.62
2019-02-19T16:48:35.190Z,18.40
2019-02-19T16:51:16.390Z,23.87
2019-02-19T16:53:46.614Z,18.42
2019-02-19T16:56:22.730Z,19.65
2019-02-19T16:58:53.185Z,28.70
2019-02-19T17:01:26.100Z,21.75
2019-02-19T17:04:08.524Z,21.45
2019-02-19T17:06:47.730Z,27.02
2019-02-19T17:09:18.049Z,24.47
2019-02-19T17:11:57.334Z,17.23
2019-02-19T17:14:33.749Z,17.67
2019-02-19T17:17:04.006Z,24.75
2019-02-19T17:19:50.646Z,18.92
2019-02-19T17:22:23.254Z,15.90
2019-02-19T17:25:09.995Z,18.80
2019-02-19T17:27:49.058Z,25.10
2019-02-19T17:30:28.181Z,18.37
2019-02-19T17:33:01.356Z,16.00
2019-02-19T17:35:37.552Z,20.88
2019-02-19T17:38:16.856Z,34.75
2019-02-19T17:40:55.969Z,32.65
2019-02-19T17:43:26.092Z,55.43
2019-02-19T17:45:59.316Z,30.70
2019-02-19T17:48:35.427Z,35.20
2019-02-19T17:51:14.938Z,36.03
2019-02-19T17:53:45.176Z,29.65
2019-02-19T17:56:24.639Z,46.10
2019-02-19T17:58:57.976Z,37.55
2019-02-19T18:01:40.264Z,36.40
2019-02-19T18:04:25.812Z,36.33
2019-02-19T18:06:56.100Z,44.10
2019-02-19T18:09:26.361Z,30.80
2019-02-19T18:11:59.519Z,39.23
2019-02-19T18:14:46.239Z,29.70
2019-02-19T18:17:31.502Z,33.60
2019-02-19T18:20:00.290Z,30.20
2019-02-19T18:22:28.717Z,35.38
2019-02-19T18:24:57.381Z,29.60
2019-02-19T18:27:25.937Z,32.30
2019-02-19T18:29:54.503Z,46.60
2019-02-19T18:32:23.216Z,34.43
2019-02-19T18:34:51.832Z,25.92
2019-02-19T18:37:20.368Z,32.20
2019-02-19T18:39:48.946Z,33.33
2019-02-19T18:42:17.578Z,29.23
2019-02-19T18:44:46.209Z,36.35
2019-02-19T18:47:14.700Z,39.88
2019-02-19T18:49:43.302Z,31.05
2019-02-19T18:52:11.966Z,29.52
2019-02-19T18:54:49.880Z,31.50
2019-02-19T18:57:18.384Z,32.65
2019-02-19T18:59:46.941Z,32.15
2019-02-19T19:02:15.570Z,30.82
2019-02-19T19:04:44.052Z,32.53
2019-02-19T19:07:12.726Z,29.02
2019-02-19T19:09:41.352Z,30.97
2019-02-19T19:12:09.913Z,30.20
2019-02-19T19:14:38.462Z,28.15
2019-02-19T19:17:07.126Z,25.15
2019-02-19T19:19:35.758Z,25.48
2019-02-19T19:22:04.307Z,33.25
2019-02-19T19:24:32.963Z,32.78
2019-02-19T19:27:01.594Z,30.02
2019-02-19T19:29:31.271Z,29.25
2019-02-19T19:32:00.037Z,32.53
2019-02-19T19:34:28.516Z,30.85
2019-02-19T19:36:57.147Z,31.42
2019-02-19T19:39:25.814Z,28.10
2019-02-19T19:41:54.308Z,29.92
2019-02-19T19:44:24.906Z,29.55
2019-02-19T19:46:53.179Z,28.70
2019-02-19T19:49:21.747Z,32.93
2019-02-19T19:51:50.387Z,32.75
2019-02-19T19:54:19.057Z,32.05
2019-02-19T19:56:47.613Z,38.25
2019-02-19T19:59:16.166Z,33.92
2019-02-19T20:01:44.839Z,29.07
2019-02-19T20:04:13.457Z,27.70
2019-02-19T20:06:41.968Z,29.45
2019-02-19T20:09:10.659Z,28.47
2019-02-19T20:11:39.290Z,38.13
2019-02-19T20:14:07.921Z,36.17
2019-02-19T20:16:36.613Z,32.58
2019-02-19T20:19:05.299Z,31.15
2019-02-19T20:21:33.913Z,35.25
2019-02-19T20:24:02.430Z,34.05
2019-02-19T20:26:31.049Z,43.90
2019-02-19T20:28:59.675Z,42.08
2019-02-19T20:31:28.269Z,34.80
2019-02-19T20:33:56.755Z,32.73
2019-02-19T20:36:25.390Z,44.55
2019-02-19T20:38:54.043Z,38.92
2019-02-19T20:41:22.606Z,42.50
2019-02-19T20:43:51.178Z,51.60
2019-02-19T20:46:19.842Z,45.48
2019-02-19T20:48:48.479Z,59.40
2019-02-19T20:51:17.056Z,42.33
2019-02-19T20:53:45.589Z,45.83
2019-02-19T20:56:14.217Z,46.30
2019-02-19T20:58:42.853Z,54.45
2019-02-19T21:01:11.386Z,59.50
2019-02-19T21:03:40.024Z,50.23
2019-02-19T21:06:10.312Z,65.85
2019-02-19T21:08:39.274Z,63.63
2019-02-19T21:11:07.946Z,91.00
2019-02-19T21:13:36.569Z,88.72
2019-02-19T21:16:05.447Z,80.62
2019-02-19T21:18:33.942Z,88.95
2019-02-19T21:21:02.733Z,112.68
2019-02-19T21:23:31.724Z,108.27
2019-02-19T21:26:00.299Z,100.90
2019-02-19T21:28:28.869Z,107.97
2019-02-19T21:30:57.557Z,115.03
2019-02-19T21:33:26.196Z,124.67
2019-02-19T21:35:57.823Z,131.05
2019-02-19T21:38:25.023Z,139.88
2019-02-19T21:40:53.670Z,125.33
2019-02-19T21:43:22.160Z,124.45
2019-02-19T21:45:50.838Z,130.78
2019-02-19T21:48:19.474Z,143.87
2019-02-19T21:50:47.982Z,133.80
2019-02-19T21:53:16.534Z,146.68
2019-02-19T21:55:45.174Z,148.00
2019-02-19T21:58:13.809Z,148.38
2019-02-19T22:00:42.418Z,150.87
2019-02-19T22:03:10.904Z,161.77
2019-02-19T22:05:39.541Z,160.05
2019-02-19T22:08:08.215Z,145.38
2019-02-19T22:10:36.697Z,134.22
2019-02-19T22:13:05.258Z,165.12
2019-02-19T22:15:33.943Z,133.37
2019-02-19T22:18:02.583Z,153.35
2019-02-19T22:20:35.901Z,136.47
2019-02-19T22:23:04.649Z,169.95
2019-02-19T22:25:33.293Z,131.30
2019-02-19T22:28:01.933Z,117.63
2019-02-19T22:30:30.807Z,142.93
2019-02-19T22:33:05.408Z,162.00
2019-02-19T22:35:33.977Z,148.32
2019-02-19T22:38:02.712Z,122.10
2019-02-19T22:40:31.345Z,118.08
2019-02-19T22:42:59.974Z,108.25
2019-02-19T22:45:28.501Z,104.10
2019-02-19T22:47:56.989Z,95.53
2019-02-19T22:50:25.619Z,84.33
2019-02-19T22:52:54.271Z,76.87
2019-02-19T22:55:33.448Z,72.80
2019-02-19T22:58:02.127Z,66.47
2019-02-19T23:00:47.232Z,67.37
2019-02-19T23:03:17.728Z,68.20
2019-02-19T23:05:46.355Z,64.60
2019-02-19T23:08:14.924Z,68.90
2019-02-19T23:10:43.578Z,57.40
2019-02-19T23:13:12.200Z,53.93
2019-02-19T23:15:40.768Z,77.00
2019-02-19T23:18:09.299Z,66.65
2019-02-19T23:20:37.921Z,78.17
2019-02-19T23:23:06.573Z,74.93
2019-02-19T23:28:39.330Z,75.15
2019-02-19T23:31:07.882Z,70.47
2019-02-19T23:33:36.507Z,75.87
2019-02-19T23:36:18.819Z,68.92
2019-02-19T23:38:47.312Z,70.30
2019-02-19T23:41:15.810Z,74.77
2019-02-19T23:43:44.483Z,71.97
2019-02-19T23:46:12.968Z,75.23
2019-02-19T23:48:41.612Z,75.37
2019-02-19T23:51:10.265Z,69.90
2019-02-19T23:53:38.919Z,74.10
2019-02-19T23:56:07.443Z,78.47
2019-02-19T23:58:36.112Z,74.37
